Fort Myers, FL (33967)

10:28 PM EDT on September 14, 2014 (GMT -0400)
Carriedale | Change Station
CLOSE
Current Station
Personal Weather Station
Location: Fort Myers, FL
Elevation: 16 ft
Nearby Weather Stations

Elev 16 ft 26.52 °N, 81.82 °W | Updated 8 minutes ago

Partly Cloudy
Partly Cloudy
77.6 °F
Feels Like 80 °F
N
0.0
Wind Variable Wind from SE
Gusts 0.0 mph

Today
High -- | Low -- °F
--% Chance of Precip.
Yesterday
High -- | Low -- °F
Precip. -- in
7:12 AM 7:32 PM
Waning Gibbous, 60% visible
Pressure 30.13 in
Visibility 10.0 miles
Clouds Clear
Heat Index 80 °F
Dew Point 74 °F
Humidity 87%
Rainfall 0.31 in
Snow Depth Not available.
UV 0 out of 12
Pollen 6.20 out of 12
Air Quality Not available.
Flu Activity Not available.
METAR KRSW 150153Z 06003KT 10SM CLR 25/22 A3014 RMK AO2 SLP202 T02500222

More Conditions Fewer Conditions

Pressure 30.13 in
Visibility 10.0 miles
Clouds Clear
Heat Index 80 °F
Dew Point 74 °F
Humidity 87%
Rainfall 0.31 in
Snow Depth Not available.
UV 0 out of 12
Pollen 6.20 out of 12
Air Quality Not available.
Flu Activity Not available.
METAR KRSW 150153Z 06003KT 10SM CLR 25/22 A3014 RMK AO2 SLP202 T02500222

More Conditions Fewer Conditions

10-Day Weather Forecast

Almanac

Astronomy

Sep. 14, 2014 Rise Set
Actual Time 7:12 AM EDT 7:32 PM EDT
Civil Twilight 6:49 AM EDT 7:55 PM EDT
Nautical Twilight 6:22 AM EDT 8:23 PM EDT
Astronomical Twilight 5:54 AM EDT 8:50 PM EDT
Moon 11:56 PM EDT (9/14) 12:45 PM EDT (9/14)
Length of Visible Light 13h 06m
Length of Day
12h 20m
Tomorrow will be 1m 33s shorter.
Waning Gibbous, 60% of the Moon is Illuminated
Today
Waning Gibbous
Sep 15
Last Quarter
Sep 24
New
Oct 1
First Quarter
Oct 8
Full

Today's Extremes

State Highs State Lows

Community

WunderPhotos

Upload Photos

1,753,381 photos uploaded!

Nearby

Snow Depth

Station Depth Elevation
No new snow has been reported.

Earthquake Activity

City Distance Mag. Time & Date
No recent earthquake activity has been reported nearby.
Minimum magnitude displayed is 2.5.

Coastal Water Temperatures

Place Temperature
Fort Myers, FL 86.0 °F

Nearby Weather Stations